Time;durP1;ratioP1;P1;durP2;ratioP2;P2;SDS_P1;SDS_P2;PMS_P1;PMS_P2;Temp;Humidity;BMP_temperature;BMP_pressure;BME280_temperature;BME280_humidity;BME280_pressure;Samples;Min_cycle;Max_cycle;Signal;HPM_P1;HPM_P2
2023/07/23 00:02:19;;;;;;;12.32;5.85;;;19.40;54.80;;;18.56;60.81;95884.13;5052571;28;20044;-64
2023/07/23 00:04:45;;;;;;;11.75;5.97;;;19.50;55.20;;;18.54;61.80;95885.41;5068266;28;20068;-65
2023/07/23 00:07:11;;;;;;;6.38;3.90;;;19.50;55.40;;;18.53;63.09;95889.13;5034696;28;20064;-64
2023/07/23 00:09:36;;;;;;;9.07;3.85;;;19.40;55.60;;;18.50;61.73;95889.59;5040524;28;20071;-64
2023/07/23 00:12:02;;;;;;;7.30;3.97;;;19.40;55.90;;;18.47;62.15;95887.44;5037399;28;20052;-63
2023/07/23 00:14:28;;;;;;;5.72;4.10;;;19.40;56.00;;;18.45;62.74;95894.88;5035931;28;20031;-64
2023/07/23 00:16:54;;;;;;;6.90;4.47;;;19.30;56.20;;;18.41;63.49;95902.53;5037409;28;20445;-64
2023/07/23 00:19:20;;;;;;;6.30;4.50;;;19.30;56.20;;;18.39;63.21;95893.19;5067024;28;20074;-64
2023/07/23 00:21:49;;;;;;;5.22;3.70;;;19.20;56.50;;;18.35;64.41;95899.00;5052770;28;20111;-64
2023/07/23 00:24:21;;;;;;;4.47;3.40;;;19.20;56.80;;;18.30;64.61;95884.75;5033659;28;20115;-64
2023/07/23 00:26:47;;;;;;;4.75;3.25;;;19.10;57.00;;;18.24;63.43;95888.41;5031805;28;20044;-64
2023/07/23 00:29:14;;;;;;;4.93;3.60;;;19.10;56.90;;;18.18;63.68;95892.03;5050115;28;20115;-66
2023/07/23 00:31:40;;;;;;;7.35;3.78;;;19.00;57.00;;;18.15;64.55;95896.00;5071423;28;20560;-64
2023/07/23 00:34:06;;;;;;;8.45;4.57;;;19.00;57.10;;;18.11;64.77;95886.88;5032874;28;20056;-63
2023/07/23 00:36:32;;;;;;;7.25;5.00;;;19.00;57.40;;;18.10;65.33;95897.75;5034421;28;20028;-63
2023/07/23 00:38:58;;;;;;;9.57;6.43;;;19.00;57.40;;;18.09;65.08;95893.47;5050511;28;20534;-64
2023/07/23 00:41:23;;;;;;;8.73;4.68;;;19.00;57.30;;;18.07;64.82;95891.06;5040842;28;20056;-64
2023/07/23 00:43:49;;;;;;;7.28;4.65;;;19.00;57.40;;;18.04;64.48;95889.69;5027551;28;20093;-66
2023/07/23 00:46:15;;;;;;;5.93;4.40;;;19.00;57.80;;;18.04;65.32;95892.34;5055114;28;20052;-64
2023/07/23 00:48:40;;;;;;;5.90;4.03;;;18.90;57.40;;;18.03;65.96;95889.94;5036754;28;20056;-64
2023/07/23 00:51:06;;;;;;;5.93;4.28;;;18.90;58.00;;;17.99;65.65;95881.63;5073305;28;20112;-64
2023/07/23 00:53:32;;;;;;;5.60;3.65;;;18.90;58.00;;;17.96;65.55;95882.09;5035567;28;20491;-64
2023/07/23 00:55:58;;;;;;;5.45;3.50;;;18.90;58.10;;;17.95;66.64;95882.34;5037723;28;20044;-63
2023/07/23 00:58:24;;;;;;;5.25;3.88;;;18.90;58.50;;;17.94;66.04;95875.41;5051418;28;20048;-64
2023/07/23 01:00:50;;;;;;;6.50;4.00;;;18.90;58.80;;;17.93;67.40;95881.78;5054514;28;20444;-64
2023/07/23 01:03:16;;;;;;;5.60;4.10;;;18.80;59.10;;;17.92;67.45;95890.81;5049076;28;20519;-64
2023/07/23 01:05:44;;;;;;;7.05;4.10;;;18.80;59.90;;;17.90;69.02;95890.25;5037042;28;20044;-64
2023/07/23 01:08:10;;;;;;;5.53;3.90;;;18.80;60.40;;;17.87;69.12;95885.38;5024920;28;20532;-64
2023/07/23 01:10:36;;;;;;;6.55;4.03;;;18.70;61.10;;;17.85;69.90;95879.50;5039283;28;20453;-65
2023/07/23 01:13:02;;;;;;;7.38;4.07;;;18.60;61.50;;;17.81;70.51;95881.03;5033369;28;20116;-63
2023/07/23 01:15:28;;;;;;;7.43;4.28;;;18.60;62.20;;;17.78;71.40;95886.81;5022988;28;20029;-64
2023/07/23 01:17:54;;;;;;;6.32;3.85;;;18.60;62.90;;;17.72;71.99;95876.09;5048764;28;20032;-64
2023/07/23 01:20:20;;;;;;;6.13;4.25;;;18.50;63.50;;;17.68;73.02;95871.50;5034119;28;20032;-64
2023/07/23 01:22:46;;;;;;;5.55;3.92;;;18.50;63.80;;;17.65;73.41;95870.09;5041378;28;20557;-64
2023/07/23 01:25:12;;;;;;;7.13;4.97;;;18.50;64.60;;;17.63;75.21;95863.38;5040274;28;20115;-64
2023/07/23 01:27:37;;;;;;;7.47;5.07;;;18.50;64.80;;;17.60;75.61;95870.00;5070403;28;20067;-65
2023/07/23 01:30:08;;;;;;;5.97;4.43;;;18.50;65.00;;;17.60;76.27;95870.00;5064867;28;20512;-65
2023/07/23 01:32:34;;;;;;;8.32;4.90;;;18.40;65.20;;;17.58;76.90;95869.41;5054152;28;20085;-65
2023/07/23 01:35:01;;;;;;;7.25;4.60;;;18.40;65.70;;;17.56;76.30;95871.50;5035494;28;20518;-64
2023/07/23 01:37:29;;;;;;;6.57;4.15;;;18.40;65.60;;;17.53;76.98;95866.66;5040628;28;20052;-65
2023/07/23 01:39:54;;;;;;;11.52;6.55;;;18.40;65.70;;;17.53;77.25;95866.66;5031721;28;20428;-64
2023/07/23 01:42:20;;;;;;;11.07;5.40;;;18.40;65.70;;;17.51;77.25;95859.97;5054034;28;20060;-65
2023/07/23 01:44:46;;;;;;;8.95;6.38;;;18.40;65.80;;;17.48;77.72;95866.59;5035852;28;20060;-64
2023/07/23 01:47:11;;;;;;;11.63;7.18;;;18.30;65.90;;;17.46;77.86;95858.03;5054045;28;20432;-65
2023/07/23 01:49:37;;;;;;;10.45;6.50;;;18.40;65.90;;;17.45;77.87;95865.22;5033695;28;20766;-64
2023/07/23 01:52:04;;;;;;;10.10;6.70;;;18.40;66.00;;;17.45;78.87;95861.75;5036810;28;20547;-64
2023/07/23 01:54:29;;;;;;;9.32;6.53;;;18.30;66.20;;;17.43;79.09;95856.66;5069298;28;20064;-65
2023/07/23 01:56:55;;;;;;;7.78;5.00;;;18.30;66.20;;;17.41;78.75;95855.25;5049667;28;20399;-64
2023/07/23 01:59:21;;;;;;;7.57;5.30;;;18.30;66.30;;;17.40;78.70;95851.00;5032770;28;20115;-65
2023/07/23 02:01:47;;;;;;;11.63;5.70;;;18.30;66.30;;;17.37;79.40;95859.44;5039916;28;20117;-64
2023/07/23 02:04:12;;;;;;;11.25;6.38;;;18.20;66.40;;;17.35;79.43;95856.22;5067246;28;20059;-65
2023/07/23 02:06:38;;;;;;;7.40;5.13;;;18.30;66.30;;;17.33;79.02;95858.31;5041133;28;20583;-65
2023/07/23 02:09:04;;;;;;;6.97;4.65;;;18.20;66.50;;;17.28;79.63;95848.41;5067483;28;20588;-64
2023/07/23 02:11:32;;;;;;;5.93;4.40;;;18.20;66.60;;;17.27;79.98;95857.41;5054551;28;20047;-64
2023/07/23 02:13:58;;;;;;;4.95;3.97;;;18.20;66.70;;;17.23;80.59;95850.16;5048589;28;20067;-66
2023/07/23 02:16:23;;;;;;;7.50;4.25;;;18.10;66.90;;;17.19;80.85;95854.31;5055862;28;20055;-64
2023/07/23 02:18:49;;;;;;;7.75;5.20;;;18.10;66.90;;;17.15;80.79;95852.13;5049507;28;20100;-65
2023/07/23 02:21:15;;;;;;;6.75;5.25;;;18.10;67.00;;;17.14;81.23;95855.81;5055915;28;20051;-64
2023/07/23 02:23:43;;;;;;;7.88;5.10;;;18.10;67.10;;;17.11;81.56;95848.31;5051606;28;20052;-64
2023/07/23 02:26:09;;;;;;;7.00;5.25;;;18.00;67.20;;;17.08;81.50;95850.66;5039560;28;20042;-65
2023/07/23 02:28:35;;;;;;;9.07;6.00;;;18.00;67.30;;;17.04;81.70;95854.81;5035505;28;20044;-64
2023/07/23 02:31:00;;;;;;;9.25;4.78;;;18.00;67.50;;;17.01;81.36;95850.00;5071052;28;20072;-64
2023/07/23 02:33:26;;;;;;;7.85;4.60;;;17.90;67.70;;;16.97;82.35;95849.63;5052148;28;20060;-64
2023/07/23 02:35:52;;;;;;;5.55;4.30;;;17.80;68.00;;;16.91;82.32;95855.88;5046404;28;20051;-64
2023/07/23 02:38:18;;;;;;;8.27;5.22;;;17.80;68.20;;;16.87;82.97;95852.09;5034931;28;20044;-64
2023/07/23 02:40:43;;;;;;;5.88;4.65;;;17.70;68.40;;;16.84;83.39;95857.88;5070028;28;20115;-65
2023/07/23 02:43:12;;;;;;;6.68;4.40;;;17.70;68.60;;;16.79;83.98;95855.91;5035725;28;20025;-64
2023/07/23 02:45:39;;;;;;;5.85;4.20;;;17.60;68.80;;;16.77;83.75;95863.31;5048518;28;20511;-66
2023/07/23 02:48:06;;;;;;;7.70;4.70;;;17.60;69.20;;;16.72;84.69;95847.25;5048456;28;20456;-65
2023/07/23 02:50:31;;;;;;;4.95;3.97;;;17.60;69.50;;;16.68;84.68;95853.25;5029668;28;20037;-64
2023/07/23 02:52:57;;;;;;;6.13;4.30;;;17.50;69.80;;;16.63;85.22;95853.94;5071516;28;20047;-65
2023/07/23 02:55:25;;;;;;;5.35;3.85;;;17.50;69.80;;;16.62;85.46;95854.19;5050287;28;20056;-65
2023/07/23 02:57:51;;;;;;;7.03;4.70;;;17.50;69.70;;;16.59;85.68;95854.63;5067175;28;20040;-64
2023/07/23 03:00:18;;;;;;;5.72;4.00;;;17.50;69.90;;;16.58;86.19;95855.69;5050307;28;20032;-65
2023/07/23 03:02:46;;;;;;;6.60;3.90;;;17.50;70.00;;;16.53;87.11;95859.84;5038631;28;20464;-65
2023/07/23 03:05:12;;;;;;;5.47;4.20;;;17.40;70.50;;;16.50;87.02;95862.13;5037283;28;20143;-64
2023/07/23 03:07:38;;;;;;;6.80;3.85;;;17.40;70.70;;;16.47;88.02;95854.63;5049314;28;20067;-64
2023/07/23 03:10:04;;;;;;;6.07;4.32;;;17.40;71.10;;;16.41;87.68;95861.69;5029310;28;20037;-65
2023/07/23 03:12:31;;;;;;;6.13;4.07;;;17.20;71.50;;;16.37;89.29;95860.53;5051728;28;20376;-66
2023/07/23 03:14:57;;;;;;;5.95;3.97;;;17.10;71.90;;;16.32;88.99;95862.28;5039091;28;20494;-64
2023/07/23 03:17:23;;;;;;;6.50;4.45;;;17.10;72.10;;;16.28;89.94;95863.75;5037731;28;20075;-64
2023/07/23 03:19:49;;;;;;;5.97;3.85;;;17.10;72.20;;;16.26;89.52;95866.63;5038733;28;20028;-64
2023/07/23 03:22:14;;;;;;;5.78;4.03;;;17.10;72.40;;;16.23;90.46;95869.75;5066847;28;20061;-64
2023/07/23 03:24:40;;;;;;;5.40;3.92;;;17.10;72.40;;;16.19;91.40;95863.28;5048452;28;20056;-64
2023/07/23 03:27:06;;;;;;;6.25;4.15;;;17.00;72.70;;;16.18;91.32;95859.84;5033279;28;20117;-65
2023/07/23 03:29:32;;;;;;;4.95;3.92;;;17.00;72.50;;;16.17;91.95;95860.06;5057527;28;20139;-65
2023/07/23 03:31:57;;;;;;;5.55;3.67;;;17.00;72.50;;;16.16;91.70;95863.75;5046703;28;20445;-66
2023/07/23 03:34:23;;;;;;;5.20;3.63;;;17.00;72.40;;;16.16;90.96;95853.13;5058000;28;20036;-65
2023/07/23 03:36:49;;;;;;;6.15;3.97;;;17.10;72.20;;;16.15;91.10;95852.34;5037773;28;20052;-64
2023/07/23 03:39:17;;;;;;;5.60;3.92;;;17.00;72.30;;;16.13;91.38;95849.09;5064068;28;20124;-67
2023/07/23 03:41:45;;;;;;;6.03;3.80;;;17.00;72.50;;;16.15;91.20;95856.84;5053837;28;20128;-65
2023/07/23 03:44:11;;;;;;;5.13;3.60;;;17.00;72.40;;;16.15;91.83;95848.88;5056347;28;20516;-65
2023/07/23 03:47:21;;;;;;;5.70;3.88;;;17.10;72.30;;;16.15;93.52;95847.03;5072377;28;20064;-64
2023/07/23 03:49:47;;;;;;;5.93;3.92;;;17.10;72.20;;;16.12;91.92;95846.69;5059927;28;20495;-66
2023/07/23 03:52:12;;;;;;;5.65;3.22;;;17.00;72.40;;;16.12;91.78;95842.19;5038408;28;20037;-65
2023/07/23 03:54:38;;;;;;;4.97;3.47;;;17.10;72.20;;;16.11;91.69;95848.53;5059030;28;20040;-64
2023/07/23 03:57:04;;;;;;;4.72;3.50;;;17.10;72.20;;;16.10;92.04;95844.25;5037732;28;20130;-65
2023/07/23 03:59:37;;;;;;;7.80;4.40;;;17.00;72.30;;;16.13;93.19;95851.75;5038721;28;20502;-64
2023/07/23 04:02:03;;;;;;;6.22;3.95;;;17.10;72.10;;;16.14;91.89;95844.59;5037378;28;20147;-65
2023/07/23 04:04:29;;;;;;;6.32;3.58;;;17.10;72.00;;;16.14;92.15;95845.41;5040937;28;20102;-65
2023/07/23 04:06:55;;;;;;;6.32;4.05;;;17.10;72.00;;;16.15;92.37;95854.19;5034347;28;20582;-65
2023/07/23 04:09:20;;;;;;;5.85;3.97;;;17.10;72.10;;;16.15;91.94;95847.03;5047919;28;20558;-64
2023/07/23 04:11:46;;;;;;;4.80;3.60;;;17.20;71.90;;;16.15;92.80;95843.56;5036984;28;20515;-64
2023/07/23 04:14:12;;;;;;;5.13;3.65;;;17.20;71.90;;;16.17;92.84;95844.13;5039263;28;20495;-65
2023/07/23 04:16:38;;;;;;;5.13;3.92;;;17.30;71.90;;;16.19;92.15;95852.69;5052049;28;20348;-65
2023/07/23 04:19:03;;;;;;;4.93;3.65;;;17.30;71.80;;;16.20;92.50;95847.13;5025153;28;20197;-65
2023/07/23 04:21:29;;;;;;;5.88;4.05;;;17.30;71.80;;;16.22;92.64;95846.91;5052785;28;20137;-73
2023/07/23 04:23:57;;;;;;;5.88;4.22;;;17.30;71.80;;;16.22;92.96;95849.56;5054238;28;20082;-73
2023/07/23 04:26:23;;;;;;;5.53;3.88;;;17.30;71.80;;;16.22;92.72;95847.72;5078742;28;20028;-73
2023/07/23 04:28:49;;;;;;;4.90;3.30;;;17.30;71.80;;;16.21;92.32;95846.09;5069732;28;20098;-65
2023/07/23 04:31:15;;;;;;;4.82;3.75;;;17.20;71.90;;;16.24;92.47;95855.44;5053198;28;20056;-65
2023/07/23 04:33:41;;;;;;;5.35;3.78;;;17.40;71.70;;;16.26;92.77;95848.06;5051147;28;20127;-65
2023/07/23 04:36:07;;;;;;;7.10;3.67;;;17.40;71.70;;;16.31;93.34;95850.03;5024192;28;20032;-65
2023/07/23 04:38:34;;;;;;;5.28;3.85;;;17.40;71.70;;;16.32;92.62;95849.81;5050986;28;20380;-67
2023/07/23 04:40:59;;;;;;;4.07;3.60;;;17.50;71.60;;;16.33;92.63;95848.78;5056472;28;20039;-66
2023/07/23 04:43:25;;;;;;;6.38;3.80;;;17.50;71.50;;;16.34;92.67;95850.38;5060334;28;20127;-65
2023/07/23 04:45:51;;;;;;;6.65;4.10;;;17.50;71.40;;;16.35;92.29;95857.31;5035742;28;20146;-66
2023/07/23 04:48:17;;;;;;;5.32;3.72;;;17.50;71.30;;;16.36;92.81;95850.16;5031783;28;20155;-66
2023/07/23 04:50:43;;;;;;;6.72;3.83;;;17.50;71.40;;;16.38;92.36;95856.84;5084643;28;20787;-65
2023/07/23 04:53:09;;;;;;;6.68;3.58;;;17.60;71.30;;;16.42;92.48;95842.06;5049421;28;20118;-66
2023/07/23 04:55:35;;;;;;;6.90;3.58;;;17.60;71.20;;;16.46;92.47;95845.88;5073883;28;20072;-65
2023/07/23 04:58:00;;;;;;;5.15;3.60;;;17.70;70.90;;;16.52;92.27;95850.28;5050758;28;20036;-67
2023/07/23 05:00:27;;;;;;;5.05;3.65;;;17.70;71.00;;;16.57;92.92;95854.06;5043800;28;20040;-67
2023/07/23 05:02:52;;;;;;;5.10;3.63;;;17.70;70.80;;;16.59;92.64;95857.31;5050663;28;20036;-65
2023/07/23 05:05:18;;;;;;;6.22;3.38;;;17.80;70.80;;;16.60;92.48;95856.25;5055271;28;20028;-65
2023/07/23 05:07:44;;;;;;;5.35;3.65;;;17.80;70.70;;;16.63;92.24;95853.94;5069914;28;20131;-65
2023/07/23 05:10:10;;;;;;;5.78;3.90;;;17.80;70.70;;;16.66;92.10;95855.31;5069889;28;20060;-65
2023/07/23 05:12:36;;;;;;;5.28;3.55;;;17.90;70.50;;;16.69;91.58;95853.03;5054343;28;20322;-67
2023/07/23 05:15:12;;;;;;;7.15;3.95;;;17.90;70.50;;;16.72;93.27;95867.69;5054630;28;20078;-64
2023/07/23 05:17:38;;;;;;;5.68;3.58;;;17.90;70.60;;;16.76;91.58;95859.03;5034316;28;20032;-66
2023/07/23 05:20:06;;;;;;;5.95;3.17;;;18.00;70.40;;;16.80;92.33;95864.69;5019513;28;20051;-66
2023/07/23 05:22:36;;;;;;;5.60;3.30;;;18.10;70.40;;;16.84;92.85;95865.84;5041641;28;20059;-66
2023/07/23 05:25:03;;;;;;;4.85;3.58;;;18.10;70.20;;;16.88;92.19;95861.66;5019942;28;20511;-65
2023/07/23 05:27:29;;;;;;;6.25;3.72;;;18.10;70.10;;;16.92;91.66;95868.13;5052683;28;20045;-70
2023/07/23 05:29:55;;;;;;;5.43;3.30;;;18.10;70.00;;;16.97;91.49;95860.25;5036192;28;20376;-70
2023/07/23 05:32:20;;;;;;;4.57;3.50;;;18.20;69.70;;;17.03;91.10;95869.16;5008408;28;20171;-72
2023/07/23 05:34:46;;;;;;;3.60;2.80;;;18.20;69.40;;;17.09;90.99;95871.69;5067669;28;20060;-73
2023/07/23 05:37:12;;;;;;;4.20;3.35;;;18.50;69.40;;;17.17;90.35;95870.50;5040154;28;20082;-70
2023/07/23 05:39:37;;;;;;;3.88;3.05;;;18.50;69.10;;;17.25;90.26;95867.47;5033868;28;20052;-72
2023/07/23 05:42:04;;;;;;;6.85;3.35;;;18.60;68.70;;;17.31;89.11;95866.53;5040882;28;20040;-65
2023/07/23 05:44:30;;;;;;;5.72;3.67;;;18.70;68.30;;;17.42;89.08;95870.16;5034449;28;20342;-67
2023/07/23 05:46:56;;;;;;;5.80;3.40;;;18.80;68.10;;;17.51;88.42;95866.09;5056955;28;20081;-68
2023/07/23 05:49:21;;;;;;;5.65;3.50;;;19.00;67.40;;;17.62;88.27;95872.41;5066418;28;20040;-70
2023/07/23 05:51:48;;;;;;;5.38;3.65;;;19.00;66.90;;;17.72;87.54;95876.09;5040863;28;20043;-71
2023/07/23 05:54:13;;;;;;;6.75;3.80;;;19.20;66.60;;;17.85;87.24;95879.50;5035480;28;20043;-72
2023/07/23 05:56:39;;;;;;;5.93;3.55;;;19.40;66.50;;;18.00;86.82;95877.09;5039653;28;20063;-71
2023/07/23 05:59:05;;;;;;;4.30;3.20;;;19.50;66.00;;;18.13;86.17;95871.47;5032765;28;20123;-71
2023/07/23 06:01:30;;;;;;;3.85;3.00;;;19.70;65.20;;;18.27;85.83;95870.09;5034920;28;20035;-72
2023/07/23 06:03:56;;;;;;;5.60;3.22;;;19.90;65.00;;;18.47;86.12;95876.78;5036822;28;20127;-70
2023/07/23 06:06:22;;;;;;;4.65;3.33;;;20.20;64.00;;;18.63;84.70;95878.66;5071765;28;20117;-68
2023/07/23 06:08:48;;;;;;;6.60;3.55;;;20.40;63.30;;;18.79;83.96;95872.50;5046079;28;20356;-70
2023/07/23 06:11:14;;;;;;;6.75;3.10;;;20.60;63.10;;;19.01;83.41;95863.69;5053639;28;20047;-69
2023/07/23 06:13:40;;;;;;;5.13;3.17;;;20.80;62.10;;;19.17;81.83;95868.97;5028018;28;20033;-69
2023/07/23 06:16:06;;;;;;;6.10;3.28;;;21.00;61.50;;;19.40;81.51;95869.75;5052250;28;20076;-75
2023/07/23 06:18:35;;;;;;;3.60;3.00;;;21.30;60.50;;;19.61;80.54;95857.47;5060103;28;20133;-76
2023/07/23 06:21:01;;;;;;;3.20;2.60;;;21.60;59.80;;;19.80;79.26;95866.75;5054268;28;20039;-66
2023/07/23 06:23:27;;;;;;;6.13;3.10;;;21.90;59.20;;;20.03;78.53;95863.75;5056856;28;20040;-65
2023/07/23 06:25:56;;;;;;;4.80;2.92;;;22.20;58.40;;;20.27;77.70;95861.53;5033277;28;20114;-67
2023/07/23 06:28:22;;;;;;;4.10;2.70;;;22.50;57.70;;;20.51;77.02;95856.66;5071446;28;20033;-65
2023/07/23 06:30:52;;;;;;;3.88;2.72;;;22.70;57.10;;;20.76;75.54;95854.16;5050222;28;20391;-67
2023/07/23 06:33:17;;;;;;;6.43;3.17;;;23.00;56.20;;;21.02;75.97;95846.25;5050615;28;20039;-71
2023/07/23 06:35:43;;;;;;;4.50;2.60;;;23.40;55.70;;;21.27;74.07;95843.72;5048148;28;20579;-70
2023/07/23 06:38:09;;;;;;;5.47;2.60;;;23.60;54.30;;;21.51;72.23;95843.28;5039451;28;20036;-69
2023/07/23 06:40:35;;;;;;;3.38;2.45;;;24.00;52.70;;;21.76;70.70;95835.28;5032657;28;20526;-69
2023/07/23 06:43:01;;;;;;;3.42;2.70;;;24.30;51.20;;;22.02;69.14;95844.94;5038456;28;20480;-69
2023/07/23 06:45:27;;;;;;;5.47;2.88;;;24.60;50.00;;;22.26;67.27;95837.22;5031917;28;20503;-69
2023/07/23 06:47:53;;;;;;;4.57;2.63;;;24.70;49.30;;;22.48;66.57;95842.28;5071747;28;20063;-70
2023/07/23 06:50:18;;;;;;;5.18;2.58;;;25.10;48.50;;;22.71;64.58;95826.69;5050971;28;20063;-73
2023/07/23 06:52:47;;;;;;;4.78;2.55;;;25.20;47.00;;;22.91;62.82;95827.47;5054897;28;20105;-71
2023/07/23 06:55:13;;;;;;;4.38;2.80;;;25.50;46.60;;;23.13;62.22;95826.31;5052222;28;20688;-67
2023/07/23 06:57:39;;;;;;;4.03;2.15;;;25.70;46.00;;;23.34;60.70;95818.97;5037731;28;20032;-72
2023/07/23 07:00:07;;;;;;;4.25;2.40;;;26.00;45.40;;;23.56;60.04;95824.78;5047056;28;20033;-69
2023/07/23 07:02:34;;;;;;;4.45;2.10;;;26.20;45.00;;;23.76;59.06;95808.56;5058485;28;20112;-70
2023/07/23 07:05:00;;;;;;;2.40;2.00;;;26.50;44.30;;;23.98;58.04;95816.16;5039999;28;20064;-71
2023/07/23 07:07:25;;;;;;;2.97;2.13;;;26.70;43.60;;;24.17;57.52;95802.84;5049369;28;20146;-69
2023/07/23 07:09:52;;;;;;;3.00;2.03;;;27.10;42.50;;;24.38;55.79;95798.91;5055111;28;20048;-68
2023/07/23 07:12:18;;;;;;;3.00;2.25;;;27.30;41.00;;;24.57;54.94;95790.13;5038220;28;20047;-69
2023/07/23 07:14:44;;;;;;;3.42;2.13;;;27.50;40.40;;;24.77;54.13;95787.22;5053332;28;20135;-72
2023/07/23 07:17:10;;;;;;;4.80;2.30;;;27.60;40.00;;;24.95;53.15;95783.78;5037218;28;20067;-71
2023/07/23 07:19:35;;;;;;;3.38;2.05;;;27.90;39.70;;;25.16;52.37;95780.88;5060194;28;20137;-68
2023/07/23 07:22:01;;;;;;;4.78;2.47;;;28.10;39.30;;;25.39;51.90;95784.63;5071079;28;20517;-70
2023/07/23 07:24:27;;;;;;;2.95;2.08;;;28.50;39.10;;;25.63;51.52;95775.38;5050511;28;20626;-71
2023/07/23 07:26:53;;;;;;;3.03;2.20;;;28.80;38.40;;;25.89;51.17;95772.31;5092051;22;20032;-69
2023/07/23 07:29:19;;;;;;;4.80;2.13;;;29.20;38.40;;;26.18;50.64;95775.59;5034784;28;20043;-69
2023/07/23 07:31:48;;;;;;;4.78;2.33;;;29.60;37.40;;;26.38;48.90;95760.97;5064854;28;20737;-69
2023/07/23 07:34:14;;;;;;;5.18;2.35;;;29.50;36.40;;;26.50;47.26;95760.50;5071639;28;20040;-69
2023/07/23 07:36:40;;;;;;;3.65;2.22;;;29.30;36.20;;;26.63;46.89;95754.31;5070310;28;20524;-69
2023/07/23 07:39:05;;;;;;;3.00;2.08;;;29.40;35.50;;;26.73;45.91;95748.75;5071138;28;20032;-71
2023/07/23 07:41:31;;;;;;;3.00;2.38;;;29.50;35.20;;;26.90;45.43;95731.13;5051135;28;20531;-70
2023/07/23 07:43:57;;;;;;;2.55;2.03;;;29.60;34.90;;;27.12;44.25;95734.72;5069030;28;20105;-70
2023/07/23 07:46:23;;;;;;;6.03;2.38;;;30.10;34.60;;;27.40;44.65;95730.06;5088575;28;20060;-70
2023/07/23 07:48:49;;;;;;;4.40;2.25;;;30.60;34.40;;;27.70;43.94;95716.97;5067427;28;20032;-69
2023/07/23 07:51:17;;;;;;;4.22;2.15;;;30.70;33.20;;;27.92;42.44;95706.16;5088209;28;20039;-69
2023/07/23 07:53:43;;;;;;;3.50;2.35;;;31.00;32.60;;;28.16;42.35;95705.81;5074708;28;20512;-70
2023/07/23 07:56:17;;;;;;;3.22;2.20;;;31.20;32.70;;;28.41;40.46;95698.16;5086363;28;20086;-69
2023/07/23 07:58:46;;;;;;;2.88;2.13;;;31.50;32.60;;;28.61;39.03;95676.75;5056723;28;20043;-71
2023/07/23 08:01:12;;;;;;;2.92;2.20;;;31.40;31.20;;;28.75;39.41;95683.97;5086296;28;20035;-70
2023/07/23 08:03:42;;;;;;;3.50;2.40;;;31.40;30.70;;;28.86;38.56;95677.16;5080230;28;20410;-70
2023/07/23 08:06:07;;;;;;;5.80;2.40;;;31.40;30.70;;;28.97;38.86;95675.75;5074318;28;20043;-70
2023/07/23 08:08:34;;;;;;;3.35;2.10;;;31.30;31.20;;;29.09;37.87;95667.78;5056265;28;20039;-69
2023/07/23 08:11:01;;;;;;;5.82;2.33;;;31.50;30.40;;;29.25;37.73;95665.44;5088890;28;20127;-69
2023/07/23 08:13:27;;;;;;;3.42;2.13;;;31.70;31.20;;;29.39;37.29;95657.91;5067133;28;20032;-70
2023/07/23 08:15:54;;;;;;;3.03;2.33;;;32.00;31.00;;;29.56;37.13;95662.56;5058338;28;20081;-69
2023/07/23 08:18:20;;;;;;;4.50;2.40;;;32.10;30.80;;;29.71;37.04;95658.56;5069885;28;20078;-70
2023/07/23 08:20:46;;;;;;;3.38;2.20;;;32.50;30.20;;;29.82;36.24;95644.34;5087583;28;20066;-69
2023/07/23 08:23:12;;;;;;;2.88;2.33;;;32.60;28.40;;;29.96;35.82;95649.56;5069480;28;20036;-70
2023/07/23 08:25:38;;;;;;;3.15;2.20;;;32.70;28.80;;;30.04;35.00;95645.28;5069423;28;20036;-69
2023/07/23 08:28:06;;;;;;;3.35;2.25;;;32.50;28.70;;;30.12;34.36;95644.47;5084739;28;20509;-70
2023/07/23 08:30:32;;;;;;;2.83;2.10;;;32.40;28.80;;;30.15;35.06;95639.19;5086129;28;20032;-69
2023/07/23 08:33:00;;;;;;;2.50;1.90;;;32.40;29.40;;;30.22;34.56;95635.94;5073765;28;20552;-70
2023/07/23 08:35:27;;;;;;;3.33;2.13;;;32.80;28.50;;;30.27;33.62;95627.63;5070286;28;20491;-70
2023/07/23 08:37:54;;;;;;;8.35;2.00;;;32.40;28.20;;;30.29;33.51;95622.66;5066505;28;20043;-70
2023/07/23 08:40:20;;;;;;;8.23;2.15;;;32.60;28.10;;;30.40;33.20;95626.63;5073833;28;20043;-70
2023/07/23 08:42:55;;;;;;;3.47;2.00;;;33.10;28.00;;;30.64;31.88;95581.81;5067609;28;20032;-70
2023/07/23 08:45:41;;;;;;;4.28;2.20;;;33.20;27.00;;;30.77;30.64;95588.88;5087628;28;20040;-70
2023/07/23 08:48:18;;;;;;;6.90;2.47;;;33.40;26.90;;;30.92;31.54;95592.94;5085023;28;20055;-69
2023/07/23 08:50:48;;;;;;;2.60;2.10;;;33.40;27.10;;;31.04;31.75;95612.84;5054110;28;20416;-70
2023/07/23 08:53:15;;;;;;;3.22;1.92;;;33.50;26.90;;;31.28;31.63;95606.75;5066765;28;20040;-70
2023/07/23 08:55:43;;;;;;;2.78;2.03;;;33.80;27.20;;;31.53;31.95;95602.19;5086839;28;20020;-70
2023/07/23 08:58:16;;;;;;;3.45;1.95;;;34.30;27.00;;;31.78;30.17;95578.63;5072523;28;20296;-71
2023/07/23 09:00:42;;;;;;;5.68;2.25;;;34.60;26.10;;;32.07;31.03;95599.41;5066305;28;20036;-71
2023/07/23 09:03:09;;;;;;;6.45;2.38;;;35.10;26.10;;;32.43;31.79;95589.69;5085889;28;20097;-70
2023/07/23 09:05:35;;;;;;;4.05;2.35;;;35.60;25.90;;;32.57;30.58;95584.69;5070040;28;20036;-71
2023/07/23 09:08:02;;;;;;;5.22;2.08;;;35.10;25.40;;;32.80;30.85;95591.25;5069698;28;20486;-70
2023/07/23 09:10:28;;;;;;;2.72;2.35;;;35.50;25.40;;;32.88;30.05;95584.91;5086868;28;20044;-71
2023/07/23 09:12:53;;;;;;;3.13;2.13;;;35.20;25.30;;;32.99;29.48;95578.97;5054213;28;20428;-70
2023/07/23 09:15:19;;;;;;;2.63;2.10;;;35.40;24.70;;;33.05;29.80;95574.88;5086679;28;20614;-70
2023/07/23 09:17:49;;;;;;;2.78;2.20;;;35.50;24.80;;;33.12;28.30;95542.38;5086302;28;20513;-71
2023/07/23 09:20:17;;;;;;;3.00;2.08;;;35.80;24.30;;;33.20;28.35;95553.09;5067203;28;20064;-71
2023/07/23 09:22:43;;;;;;;2.53;1.90;;;36.00;24.10;;;33.36;29.47;95563.31;5052852;28;20103;-71
2023/07/23 09:25:09;;;;;;;3.83;2.05;;;36.30;24.40;;;33.63;28.62;95558.94;5084974;28;20044;-70
2023/07/23 09:27:40;;;;;;;4.97;2.20;;;36.80;23.70;;;33.87;27.67;95537.00;5070746;28;20040;-70
2023/07/23 09:30:06;;;;;;;3.25;2.20;;;37.00;22.40;;;33.92;28.49;95552.31;5064382;28;20123;-71
2023/07/23 09:32:33;;;;;;;4.18;2.17;;;36.80;23.80;;;34.03;28.32;95559.63;5070466;28;20236;-71
2023/07/23 09:34:59;;;;;;;2.85;2.28;;;36.80;23.70;;;34.03;28.01;95548.72;5086315;28;20059;-71
2023/07/23 09:37:28;;;;;;;3.38;2.40;;;36.30;23.20;;;34.02;27.31;95541.66;5034764;28;20468;-72
2023/07/23 09:39:56;;;;;;;2.88;2.15;;;36.40;23.70;;;33.98;27.45;95549.00;5056334;28;20036;-73
2023/07/23 09:42:22;;;;;;;2.63;2.03;;;36.10;23.70;;;33.97;27.43;95541.16;5043026;28;20032;-74
2023/07/23 09:44:48;;;;;;;2.47;2.05;;;36.40;23.40;;;33.91;27.28;95543.34;5057278;28;20028;-74
2023/07/23 09:47:16;;;;;;;2.80;2.20;;;36.20;23.60;;;33.94;27.52;95547.28;5083377;28;20530;-70
2023/07/23 09:49:42;;;;;;;3.00;2.22;;;36.40;23.60;;;34.09;27.18;95544.56;5053071;28;20745;-69
2023/07/23 09:52:08;;;;;;;2.28;1.92;;;36.90;23.20;;;34.26;27.30;95534.44;5066828;28;20032;-71
2023/07/23 09:54:37;;;;;;;4.85;2.55;;;37.00;23.30;;;34.19;26.77;95547.94;5066968;28;20028;-70
2023/07/23 09:57:03;;;;;;;3.03;2.30;;;36.60;23.70;;;34.28;26.62;95537.59;5080950;28;20086;-69
2023/07/23 09:59:30;;;;;;;4.00;2.67;;;36.90;22.70;;;34.21;26.62;95535.50;5081931;28;20116;-71
2023/07/23 10:01:56;;;;;;;3.63;2.33;;;36.90;22.70;;;34.41;26.60;95525.47;5059187;28;20101;-71
2023/07/23 10:04:23;;;;;;;4.38;2.40;;;37.40;22.20;;;34.53;26.27;95514.41;5054900;28;20406;-69
2023/07/23 10:06:48;;;;;;;5.15;2.65;;;37.10;22.20;;;34.40;26.18;95515.66;5078011;28;20024;-69
2023/07/23 10:09:15;;;;;;;3.92;2.50;;;36.60;22.90;;;34.31;26.26;95512.31;5052134;28;20518;-71
2023/07/23 10:11:41;;;;;;;3.92;2.65;;;36.50;22.80;;;34.26;26.56;95531.69;5067755;28;20033;-69
2023/07/23 10:14:06;;;;;;;3.72;2.83;;;36.90;22.50;;;34.46;25.97;95527.91;5068826;28;20085;-70
2023/07/23 10:16:40;;;;;;;3.22;2.50;;;37.30;22.30;;;34.63;25.62;95508.41;5080556;28;20082;-70